createdAt,value
2022-09-25T00:00:14.406Z,12.39
2022-09-25T00:05:13.433Z,12.48
2022-09-25T00:10:12.369Z,12.51
2022-09-25T00:15:12.882Z,12.50
2022-09-25T00:20:25.317Z,12.40
2022-09-25T00:25:27.555Z,12.45
2022-09-25T00:30:27.141Z,12.48
2022-09-25T00:35:27.059Z,12.21
2022-09-25T00:40:28.645Z,12.41
2022-09-25T00:45:30.565Z,12.09
2022-09-25T00:50:45.026Z,12.15
2022-09-25T00:55:45.808Z,12.26
2022-09-25T01:00:47.742Z,12.05
2022-09-25T01:05:46.051Z,11.97
2022-09-25T01:10:54.527Z,11.73
2022-09-25T01:16:08.464Z,11.87
2022-09-25T01:21:34.414Z,11.75
2022-09-25T01:26:59.761Z,11.74
2022-09-25T01:32:04.693Z,11.51
2022-09-25T01:37:10.051Z,11.47
2022-09-25T01:42:21.003Z,11.55
2022-09-25T01:47:25.748Z,11.20
2022-09-25T01:52:31.225Z,10.96
2022-09-25T01:57:39.224Z,10.99
2022-09-25T02:02:58.363Z,10.93
2022-09-25T02:08:04.175Z,10.93
2022-09-25T02:13:09.068Z,11.07
2022-09-25T02:18:30.260Z,11.08
2022-09-25T02:23:39.998Z,11.05
2022-09-25T02:28:37.539Z,10.80
2022-09-25T02:33:38.450Z,10.79
2022-09-25T02:38:37.693Z,10.47
2022-09-25T02:43:41.786Z,10.70
2022-09-25T02:48:41.524Z,10.78
2022-09-25T02:53:44.032Z,10.69
2022-09-25T02:58:55.841Z,10.75
2022-09-25T03:03:56.940Z,10.49
2022-09-25T03:08:57.048Z,10.36
2022-09-25T03:14:00.427Z,10.39
2022-09-25T03:18:58.887Z,10.64
2022-09-25T03:23:58.273Z,10.59
2022-09-25T03:29:02.626Z,10.64
2022-09-25T03:34:01.675Z,10.42
2022-09-25T03:39:03.594Z,10.62
2022-09-25T03:44:04.459Z,10.52
2022-09-25T03:49:04.482Z,10.41
2022-09-25T03:54:04.377Z,10.39
2022-09-25T03:59:04.609Z,10.45
2022-09-25T04:04:05.735Z,10.48
2022-09-25T04:09:05.186Z,10.36
2022-09-25T04:14:04.203Z,10.31
2022-09-25T04:19:02.568Z,10.49
2022-09-25T04:24:21.740Z,10.37
2022-09-25T04:29:21.421Z,10.38
2022-09-25T04:34:20.458Z,10.34
2022-09-25T04:39:21.342Z,10.61
2022-09-25T04:44:20.903Z,10.56
2022-09-25T04:49:19.286Z,10.95
2022-09-25T04:54:17.844Z,11.09
2022-09-25T04:59:18.614Z,11.05
2022-09-25T05:04:17.141Z,11.15
2022-09-25T05:09:17.091Z,11.00
2022-09-25T05:14:15.559Z,11.26
2022-09-25T05:19:14.861Z,11.38
2022-09-25T05:24:13.950Z,11.35
2022-09-25T05:29:13.864Z,11.61
2022-09-25T05:34:12.689Z,11.85
2022-09-25T05:39:14.654Z,12.11
2022-09-25T05:44:13.341Z,12.21
2022-09-25T05:49:12.076Z,12.22
2022-09-25T05:54:11.565Z,12.21
2022-09-25T05:59:09.612Z,12.09
2022-09-25T06:04:08.398Z,12.30
2022-09-25T06:09:08.185Z,12.29
2022-09-25T06:14:08.127Z,12.45
2022-09-25T06:19:06.497Z,12.64
2022-09-25T06:24:04.745Z,12.88
2022-09-25T06:29:04.722Z,13.06
2022-09-25T06:34:04.611Z,13.04
2022-09-25T06:39:06.318Z,13.27
2022-09-25T06:44:05.072Z,13.27
2022-09-25T06:49:03.564Z,13.76
2022-09-25T06:54:02.095Z,13.45
2022-09-25T06:59:01.800Z,13.98
2022-09-25T07:04:00.127Z,13.90
2022-09-25T07:08:58.642Z,14.13
2022-09-25T07:13:57.486Z,14.21
2022-09-25T07:18:59.784Z,14.57
2022-09-25T07:23:59.097Z,14.51
2022-09-25T07:29:04.553Z,14.71
2022-09-25T07:34:09.822Z,14.88
2022-09-25T07:39:07.773Z,15.03
2022-09-25T07:49:29.138Z,15.27
2022-09-25T07:54:30.430Z,15.46
2022-09-25T07:59:28.621Z,15.53
2022-09-25T08:04:26.222Z,15.94
2022-09-25T08:09:24.118Z,15.94
2022-09-25T08:14:26.623Z,16.17
2022-09-25T08:19:27.401Z,16.18
2022-09-25T08:24:25.251Z,16.33
2022-09-25T08:29:23.345Z,16.74
2022-09-25T08:34:40.055Z,16.75
2022-09-25T08:39:40.956Z,17.07
2022-09-25T08:45:21.414Z,17.39
2022-09-25T08:50:32.811Z,17.69
2022-09-25T08:56:01.774Z,17.98
2022-09-25T09:01:07.229Z,18.23
2022-09-25T09:06:12.672Z,18.47
2022-09-25T09:11:21.259Z,18.55
2022-09-25T09:16:28.363Z,18.93
2022-09-25T09:21:33.297Z,19.03
2022-09-25T09:26:57.738Z,19.43
2022-09-25T09:32:12.690Z,19.68
2022-09-25T09:37:17.723Z,19.85
2022-09-25T09:42:29.344Z,19.86
2022-09-25T09:47:46.943Z,19.90
2022-09-25T09:52:48.450Z,20.12
2022-09-25T09:57:52.824Z,20.24
2022-09-25T10:03:06.317Z,20.53
2022-09-25T10:08:04.898Z,20.74
2022-09-25T10:13:06.931Z,20.96
2022-09-25T10:18:05.278Z,20.92
2022-09-25T10:23:05.376Z,21.10
2022-09-25T10:28:28.231Z,21.30
2022-09-25T10:33:29.550Z,21.32
2022-09-25T10:38:49.964Z,21.65
2022-09-25T10:43:53.590Z,21.76
2022-09-25T10:49:31.562Z,22.01
2022-09-25T10:54:30.210Z,21.96
2022-09-25T10:59:28.503Z,22.24
2022-09-25T11:04:34.832Z,22.23
2022-09-25T11:09:34.196Z,22.22
2022-09-25T11:14:36.398Z,22.40
2022-09-25T11:19:38.629Z,22.60
2022-09-25T11:24:48.075Z,22.61
2022-09-25T11:30:26.325Z,22.57
2022-09-25T11:35:35.545Z,22.80
2022-09-25T11:41:07.582Z,22.90
2022-09-25T11:46:54.125Z,23.05
2022-09-25T11:52:07.195Z,23.01
2022-09-25T11:57:14.946Z,23.07
2022-09-25T12:02:41.236Z,23.01
2022-09-25T12:07:52.423Z,23.23
2022-09-25T12:12:54.171Z,23.35
2022-09-25T12:18:02.392Z,23.23
2022-09-25T12:23:09.197Z,23.38
2022-09-25T12:28:41.066Z,23.38
2022-09-25T12:33:55.078Z,23.67
2022-09-25T12:39:09.484Z,23.61
2022-09-25T12:44:44.287Z,23.76
2022-09-25T12:49:52.026Z,23.82
2022-09-25T12:55:19.049Z,23.94
2022-09-25T13:00:21.466Z,24.03
2022-09-25T13:05:23.658Z,24.15
2022-09-25T13:10:47.729Z,24.26
2022-09-25T13:15:49.290Z,24.52
2022-09-25T13:20:51.687Z,24.27
2022-09-25T13:26:01.918Z,24.47
2022-09-25T13:31:13.106Z,24.78
2022-09-25T13:36:23.807Z,24.60
2022-09-25T13:41:21.270Z,24.70
2022-09-25T13:46:21.677Z,25.11
2022-09-25T13:51:22.142Z,25.56
2022-09-25T13:56:24.767Z,25.98
2022-09-25T14:01:42.556Z,25.73
2022-09-25T14:06:42.771Z,25.51
2022-09-25T14:11:42.984Z,26.24
2022-09-25T14:16:48.944Z,26.88
2022-09-25T14:21:48.836Z,27.20
2022-09-25T14:26:47.317Z,27.99
2022-09-25T14:32:53.881Z,27.29
2022-09-25T14:38:02.841Z,26.68
2022-09-25T14:43:30.452Z,26.59
2022-09-25T14:48:45.619Z,26.01
2022-09-25T14:54:04.843Z,25.06
2022-09-25T14:59:13.182Z,25.00
2022-09-25T15:04:11.702Z,25.71
2022-09-25T15:09:30.466Z,25.18
2022-09-25T15:14:29.114Z,24.48
2022-09-25T15:19:35.324Z,23.92
2022-09-25T15:24:34.678Z,23.52
2022-09-25T15:29:37.213Z,23.22
2022-09-25T15:34:34.751Z,22.92
2022-09-25T15:39:41.072Z,22.60
2022-09-25T15:44:39.337Z,22.53
2022-09-25T15:49:41.135Z,22.40
2022-09-25T15:54:44.507Z,22.24
2022-09-25T16:00:06.510Z,21.88
2022-09-25T16:05:09.465Z,21.67
2022-09-25T16:10:10.193Z,21.53
2022-09-25T16:15:30.200Z,21.29
2022-09-25T16:20:38.393Z,21.04
2022-09-25T16:25:38.126Z,20.80
2022-09-25T16:30:36.356Z,20.49
2022-09-25T16:36:08.141Z,20.15
2022-09-25T16:41:18.210Z,20.01
2022-09-25T16:46:18.385Z,19.88
2022-09-25T16:51:22.208Z,19.90
2022-09-25T16:56:23.398Z,19.79
2022-09-25T17:01:23.496Z,19.55
2022-09-25T17:06:23.018Z,19.47
2022-09-25T17:11:21.642Z,19.38
2022-09-25T17:16:22.069Z,19.29
2022-09-25T17:21:22.347Z,19.34
2022-09-25T17:26:24.269Z,19.15
2022-09-25T17:31:23.850Z,18.83
2022-09-25T17:36:25.147Z,18.86
2022-09-25T17:41:36.332Z,18.85
2022-09-25T17:46:34.758Z,18.77
2022-09-25T17:51:34.133Z,18.62
2022-09-25T17:56:34.965Z,18.66
2022-09-25T18:01:38.329Z,18.62
2022-09-25T18:06:39.022Z,18.42
2022-09-25T18:11:43.593Z,18.23
2022-09-25T18:16:43.144Z,18.01
2022-09-25T18:22:00.587Z,18.04
2022-09-25T18:27:00.489Z,18.22
2022-09-25T18:31:59.884Z,18.10
2022-09-25T18:37:00.624Z,18.09
2022-09-25T18:41:58.890Z,17.74
2022-09-25T18:46:58.418Z,17.84
2022-09-25T18:51:58.482Z,17.72
2022-09-25T18:56:59.613Z,17.50
2022-09-25T19:02:01.213Z,17.43
2022-09-25T19:06:59.995Z,17.50
2022-09-25T19:12:00.836Z,17.42
2022-09-25T19:17:00.071Z,17.47
2022-09-25T19:21:59.803Z,17.18
2022-09-25T19:26:57.810Z,17.07
2022-09-25T19:31:56.654Z,17.25
2022-09-25T19:36:57.684Z,17.05
2022-09-25T19:41:56.707Z,17.06
2022-09-25T19:46:57.328Z,16.87
2022-09-25T19:51:55.702Z,16.96
2022-09-25T19:56:54.455Z,16.81
2022-09-25T20:01:53.727Z,16.83
2022-09-25T20:07:02.910Z,16.52
2022-09-25T20:12:04.226Z,16.61
2022-09-25T20:17:05.294Z,16.45
2022-09-25T20:22:08.552Z,16.45
2022-09-25T20:27:07.877Z,16.42
2022-09-25T20:32:06.156Z,16.57
2022-09-25T20:37:05.052Z,16.58
2022-09-25T20:42:04.888Z,16.24
2022-09-25T20:47:03.411Z,15.96
2022-09-25T20:52:05.518Z,16.10
2022-09-25T20:57:04.415Z,16.24
2022-09-25T21:02:05.344Z,15.87
2022-09-25T21:07:04.397Z,15.84
2022-09-25T21:12:06.057Z,15.87
2022-09-25T21:17:09.613Z,15.92
2022-09-25T21:22:08.290Z,15.82
2022-09-25T21:27:06.944Z,15.73
2022-09-25T21:32:07.177Z,15.87
2022-09-25T21:37:05.512Z,15.77
2022-09-25T21:42:05.795Z,15.93
2022-09-25T21:47:08.133Z,16.11
2022-09-25T21:52:06.702Z,15.91
2022-09-25T21:57:05.164Z,15.89
2022-09-25T22:02:02.898Z,15.69
2022-09-25T22:07:04.858Z,15.70
2022-09-25T22:12:06.455Z,15.65
2022-09-25T22:17:08.168Z,15.77
2022-09-25T22:22:06.792Z,15.64
2022-09-25T22:27:06.392Z,15.53
2022-09-25T22:32:08.922Z,15.69
2022-09-25T22:37:07.941Z,15.65
2022-09-25T22:42:07.108Z,15.73
2022-09-25T22:47:08.827Z,15.68
2022-09-25T22:52:08.274Z,15.64
2022-09-25T22:57:08.772Z,15.60
2022-09-25T23:02:07.794Z,15.84
2022-09-25T23:07:06.961Z,15.63
2022-09-25T23:12:05.876Z,15.55
2022-09-25T23:17:06.433Z,15.56
2022-09-25T23:22:08.557Z,15.57
2022-09-25T23:27:07.688Z,15.42
2022-09-25T23:32:10.603Z,15.49
2022-09-25T23:37:13.944Z,15.68
2022-09-25T23:42:16.384Z,15.38
2022-09-25T23:47:15.141Z,15.62
2022-09-25T23:52:13.234Z,15.78
2022-09-25T23:57:14.597Z,15.75
